»·PEaware :: UAL1982 KYKM-KOTH

UAL1982 :: KYKM-KOTH

FLIGHT INFORMATION

Flight Status: Arrived
Operator:
United Airlines
More flights by this operator :: More flights under this callsign
Pilot: Justin S. (9599)
Aircraft: BOEING 737-200
(B732)
More flights by this aircraft type
Origin: KYKM Yakima Air Term/Mcallister
United States
Destination: KOTH North Bend Mun
United States
More flights between these airports :: More routes between these airports
Route: GROMO4 GUBSE LTJ EUG OTH
File this flight plan on PilotEdge
Remarks:
Altitude:
(Current/Filed)
22,000ft
Speed:
(Current/Filed)
450kts
Departed: 17-Nov-17 09:03 PM
Arrived: 17-Nov-17 10:12 PM
Distance/Time
Traveled:
246nm/1:09
Distance/Time
To Go:
Arrived

Flight Plot

Page will automatically refresh every two minutes.

Flight plan parsing failed; only flown route is shown


Map Options




Map Legend


Flown Route
Filed Route
Departure Airport
Arrival Airport
Navaid (VOR, NDB)
Fix

Horizontal Profiles

Position Reports

Time Latitude Longitude Heading Altitude Ground
Speed
17-Nov-17 20:45 46.569484 -120.539436 49 1076ft 0kts
17-Nov-17 20:46 46.569484 -120.539436 49 1076ft 0kts
17-Nov-17 20:47 46.569484 -120.539436 49 1076ft 0kts
17-Nov-17 20:48 46.569484 -120.539436 49 1076ft 0kts
17-Nov-17 20:49 46.569484 -120.539436 49 1076ft 0kts
17-Nov-17 20:50 46.569484 -120.539436 49 1076ft 0kts
17-Nov-17 20:51 46.569484 -120.539436 49 1076ft 0kts
17-Nov-17 20:52 46.569484 -120.539436 49 1076ft 0kts
17-Nov-17 20:53 46.569484 -120.539436 49 1076ft 0kts
17-Nov-17 20:54 46.569484 -120.539436 49 1076ft 0kts
17-Nov-17 20:55 46.569314 -120.539732 70 1076ft 1kts
17-Nov-17 20:56 46.569369 -120.540086 109 1076ft 0kts
17-Nov-17 20:57 46.569368 -120.540085 110 1076ft 0kts
17-Nov-17 20:58 46.569368 -120.540085 110 1076ft 0kts
17-Nov-17 20:59 46.569368 -120.540085 110 1076ft 0kts
17-Nov-17 21:00 46.569368 -120.540085 110 1076ft 0kts
17-Nov-17 21:01 46.569368 -120.540085 110 1076ft 0kts
17-Nov-17 21:02 46.569368 -120.540085 110 1076ft 0kts
17-Nov-17 21:03 46.568291 -120.537894 109 1076ft 12kts
17-Nov-17 21:04 46.566901 -120.532416 106 1076ft 0kts
17-Nov-17 21:05 46.566619 -120.531560 152 1076ft 0kts
17-Nov-17 21:06 46.565635 -120.532023 285 1076ft 5kts
17-Nov-17 21:07 46.565651 -120.532094 287 1076ft 0kts
17-Nov-17 21:08 46.566450 -120.535194 290 1076ft 68kts
17-Nov-17 21:09 46.575276 -120.590742 252 2813ft 168kts
17-Nov-17 21:10 46.568825 -120.668554 264 4745ft 253kts
17-Nov-17 21:11 46.499216 -120.701737 155 7590ft 322kts
17-Nov-17 21:12 46.469302 -120.592045 86 9130ft 311kts
17-Nov-17 21:13 46.448881 -120.482084 152 10977ft 286kts
17-Nov-17 21:14 46.374226 -120.503032 224 12855ft 299kts
17-Nov-17 21:15 46.314133 -120.597903 232 14966ft 330kts
17-Nov-17 21:16 46.271718 -120.656340 225 19996ft 207kts
17-Nov-17 21:17 46.217107 -120.713079 218 20363ft 278kts
17-Nov-17 21:18 46.142462 -120.778317 214 20593ft 348kts
17-Nov-17 21:19 46.055164 -120.848565 213 22120ft 368kts
17-Nov-17 21:20 45.963088 -120.920803 213 22337ft 386kts
17-Nov-17 21:21 45.868934 -120.986123 207 22344ft 406kts
17-Nov-17 21:22 45.768021 -121.058512 213 22342ft 417kts
17-Nov-17 21:23 45.674258 -121.144782 233 22330ft 415kts
17-Nov-17 21:24 45.594107 -121.265673 230 22339ft 426kts
17-Nov-17 21:25 45.509687 -121.385601 229 22337ft 433kts
17-Nov-17 21:26 45.423090 -121.506107 228 22337ft 438kts
17-Nov-17 21:27 45.335621 -121.626831 229 22344ft 442kts
17-Nov-17 21:28 45.250618 -121.743902 228 22419ft 444kts
17-Nov-17 21:29 45.162038 -121.865306 228 22521ft 445kts
17-Nov-17 21:30 45.075037 -121.984062 228 22379ft 424kts
17-Nov-17 21:31 44.992320 -122.096542 229 22377ft 402kts
17-Nov-17 21:32 44.913541 -122.203267 229 22382ft 385kts
17-Nov-17 21:33 44.841769 -122.298466 229 22382ft 372kts
17-Nov-17 21:34 44.768356 -122.396972 229 22383ft 361kts
17-Nov-17 21:35 44.689070 -122.489582 219 22391ft 383kts
17-Nov-17 21:36 44.604839 -122.582856 227 22375ft 392kts
17-Nov-17 21:37 44.526374 -122.683518 227 22383ft 401kts
17-Nov-17 21:38 44.444758 -122.791726 228 22393ft 410kts
17-Nov-17 21:39 44.361712 -122.902763 228 22404ft 417kts
17-Nov-17 21:40 44.277197 -123.015625 228 22407ft 426kts
17-Nov-17 21:41 44.190753 -123.130644 228 22406ft 433kts
17-Nov-17 21:42 44.105124 -123.248839 230 22407ft 437kts
17-Nov-17 21:43 44.024024 -123.361127 229 22282ft 389kts
17-Nov-17 21:44 43.951603 -123.459133 229 21545ft 356kts
17-Nov-17 21:45 43.883692 -123.549922 228 20034ft 351kts
17-Nov-17 21:46 43.814448 -123.641284 229 18547ft 344kts
17-Nov-17 21:47 43.748772 -123.728634 228 17163ft 338kts
17-Nov-17 21:48 43.711190 -123.837616 280 15692ft 316kts
17-Nov-17 21:49 43.732661 -123.954419 285 14299ft 311kts
17-Nov-17 21:50 43.754265 -124.069154 285 12954ft 307kts
17-Nov-17 21:51 43.775796 -124.181911 285 11158ft 301kts
17-Nov-17 21:52 43.738351 -124.264494 185 9809ft 279kts
17-Nov-17 21:53 43.668996 -124.252705 179 8950ft 242kts
17-Nov-17 21:54 43.629254 -124.312889 237 7288ft 230kts
17-Nov-17 21:55 43.589840 -124.377187 226 6124ft 212kts
17-Nov-17 21:56 43.547836 -124.435393 209 5349ft 211kts
17-Nov-17 21:57 43.496001 -124.464145 198 4827ft 183kts
17-Nov-17 21:58 43.448758 -124.487206 198 3341ft 184kts
17-Nov-17 21:59 43.409337 -124.464090 90 1881ft 178kts
17-Nov-17 22:00 43.411963 -124.403019 91 1343ft 126kts
17-Nov-17 22:01 43.412686 -124.354121 90 1108ft 129kts
17-Nov-17 22:02 43.413415 -124.305727 91 430ft 111kts
17-Nov-17 22:03 43.427206 -124.291411 276 1984ft 102kts
17-Nov-17 22:04 43.387793 -124.332159 176 1767ft 232kts
17-Nov-17 22:05 43.338480 -124.265259 149 3776ft 259kts
17-Nov-17 22:06 43.275390 -124.277698 201 4101ft 252kts
17-Nov-17 22:07 43.217499 -124.324670 221 5056ft 207kts
17-Nov-17 22:08 43.175920 -124.381885 266 5031ft 239kts
17-Nov-17 22:09 43.196381 -124.467386 312 4983ft 234kts
17-Nov-17 22:10 43.240855 -124.523781 316 4912ft 197kts
17-Nov-17 22:11 43.287992 -124.536951 25 4128ft 193kts
17-Nov-17 22:12 43.320335 -124.489642 63 3775ft 167kts
17-Nov-17 22:13 43.344040 -124.432283 63 2914ft 181kts
17-Nov-17 22:14 43.369492 -124.370526 62 1861ft 188kts
17-Nov-17 22:15 43.395626 -124.307048 66 894ft 184kts
17-Nov-17 22:16 43.420364 -124.246814 59 13ft 92kts
17-Nov-17 22:17 43.420694 -124.242979 232 13ft 11kts
17-Nov-17 22:18 43.418300 -124.248748 239 13ft 22kts

Navigation Log

Ident Type
Flight plan parsing failed, navigation log unavailable